createdAt,value
2017-09-18T00:00:47.071Z,99.6
2017-09-18T00:01:48.761Z,99.7
2017-09-18T00:02:50.486Z,99.6
2017-09-18T00:03:52.219Z,99.6
2017-09-18T00:04:53.944Z,99.6
2017-09-18T00:05:55.663Z,99.6
2017-09-18T00:06:57.376Z,100.0
2017-09-18T00:07:59.073Z,100.0
2017-09-18T00:09:00.786Z,100.0
2017-09-18T00:10:02.479Z,99.9
2017-09-18T00:11:04.183Z,100.0
2017-09-18T00:12:05.868Z,100.0
2017-09-18T00:13:07.583Z,100.0
2017-09-18T00:14:09.269Z,100.0
2017-09-18T00:15:10.989Z,100.0
2017-09-18T00:16:12.710Z,100.0
2017-09-18T00:17:14.414Z,99.9
2017-09-18T00:18:16.129Z,99.9
2017-09-18T00:19:17.859Z,99.7
2017-09-18T00:20:19.560Z,99.9
2017-09-18T00:21:21.297Z,100.0
2017-09-18T00:22:23.015Z,99.7
2017-09-18T00:23:24.770Z,100.0
2017-09-18T00:24:26.586Z,100.0
2017-09-18T00:25:28.262Z,100.0
2017-09-18T00:26:29.981Z,100.0
2017-09-18T00:27:31.723Z,100.0
2017-09-18T00:28:33.461Z,100.0
2017-09-18T00:29:35.199Z,100.0
2017-09-18T00:30:36.985Z,100.0
2017-09-18T00:31:38.700Z,100.0
2017-09-18T00:32:40.422Z,100.0
2017-09-18T00:33:42.109Z,100.0
2017-09-18T00:34:43.823Z,100.0
2017-09-18T00:35:45.537Z,100.0
2017-09-18T00:36:47.257Z,100.0
2017-09-18T00:37:48.966Z,100.0
2017-09-18T00:38:50.683Z,100.0
2017-09-18T00:39:52.416Z,100.0
2017-09-18T00:40:54.165Z,100.0
2017-09-18T00:41:55.885Z,100.0
2017-09-18T00:42:57.603Z,100.0
2017-09-18T00:43:59.325Z,100.0
2017-09-18T00:45:01.058Z,100.0
2017-09-18T00:46:02.752Z,100.0
2017-09-18T00:47:04.448Z,100.0
2017-09-18T00:48:06.166Z,100.0
2017-09-18T00:49:07.885Z,100.0
2017-09-18T00:50:09.595Z,100.0
2017-09-18T00:51:11.316Z,100.0
2017-09-18T00:52:13.049Z,100.0
2017-09-18T00:53:14.812Z,100.0
2017-09-18T00:54:16.506Z,100.0
2017-09-18T00:55:18.342Z,100.0
2017-09-18T00:56:20.070Z,100.0
2017-09-18T00:57:21.775Z,100.0
2017-09-18T00:58:23.525Z,100.0
2017-09-18T00:59:25.234Z,100.0
2017-09-18T01:00:26.971Z,100.0
2017-09-18T01:01:28.666Z,100.0
2017-09-18T01:02:30.371Z,100.0
2017-09-18T01:03:32.065Z,100.0
2017-09-18T01:04:33.823Z,100.0
2017-09-18T01:05:35.534Z,100.0
2017-09-18T01:06:37.375Z,100.0
2017-09-18T01:07:39.114Z,100.0
2017-09-18T01:08:40.830Z,100.0
2017-09-18T01:09:42.547Z,100.0
2017-09-18T01:10:44.267Z,100.0
2017-09-18T01:11:45.983Z,100.0
2017-09-18T01:12:47.708Z,100.0
2017-09-18T01:13:49.420Z,100.0
2017-09-18T01:14:51.158Z,100.0
2017-09-18T01:15:52.864Z,100.0
2017-09-18T01:16:54.578Z,100.0
2017-09-18T01:17:56.291Z,100.0
2017-09-18T01:18:58.003Z,100.0
2017-09-18T01:19:59.733Z,100.0
2017-09-18T01:21:01.501Z,100.0
2017-09-18T01:22:03.225Z,100.0
2017-09-18T01:23:04.956Z,100.0
2017-09-18T01:24:06.663Z,100.0
2017-09-18T01:25:08.363Z,100.0
2017-09-18T01:26:10.096Z,100.0
2017-09-18T01:27:11.803Z,100.0
2017-09-18T01:28:13.524Z,100.0
2017-09-18T01:29:15.241Z,100.0
2017-09-18T01:30:16.960Z,100.0
2017-09-18T01:31:18.680Z,100.0
2017-09-18T01:32:20.392Z,100.0
2017-09-18T01:33:22.105Z,100.0
2017-09-18T01:34:23.819Z,100.0
2017-09-18T01:35:25.557Z,100.0
2017-09-18T01:36:27.291Z,100.0
2017-09-18T01:37:28.987Z,100.0
2017-09-18T01:38:30.703Z,100.0
2017-09-18T01:39:32.417Z,100.0
2017-09-18T01:40:34.171Z,99.5
2017-09-18T01:41:35.952Z,99.3
2017-09-18T01:42:37.737Z,99.6
2017-09-18T01:43:39.548Z,99.5
2017-09-18T01:44:41.288Z,99.4
2017-09-18T01:45:43.040Z,100.0
2017-09-18T01:46:44.760Z,100.0
2017-09-18T01:47:46.478Z,99.9
2017-09-18T01:48:48.187Z,100.0
2017-09-18T01:49:49.872Z,99.5
2017-09-18T01:50:51.602Z,98.9
2017-09-18T01:51:53.312Z,98.8
2017-09-18T01:52:55.040Z,99.2
2017-09-18T01:53:56.797Z,98.8
2017-09-18T01:54:58.575Z,99.1
2017-09-18T01:56:00.305Z,98.6
2017-09-18T01:57:02.077Z,98.6
2017-09-18T01:58:03.810Z,97.5
2017-09-18T01:59:05.515Z,99.0
2017-09-18T02:00:07.238Z,98.7
2017-09-18T02:01:08.924Z,98.1
2017-09-18T02:02:10.612Z,98.2
2017-09-18T02:03:12.338Z,97.6
2017-09-18T02:04:14.029Z,98.0
2017-09-18T02:05:15.759Z,98.9
2017-09-18T02:06:17.463Z,99.0
2017-09-18T02:07:19.157Z,98.8
2017-09-18T02:08:20.889Z,98.9
2017-09-18T02:09:22.593Z,99.0
2017-09-18T02:10:24.330Z,98.8
2017-09-18T02:11:26.039Z,98.8
2017-09-18T02:12:27.739Z,97.5
2017-09-18T02:13:29.475Z,97.9
2017-09-18T02:14:31.224Z,98.0
2017-09-18T02:15:32.941Z,98.2
2017-09-18T02:16:34.644Z,98.3
2017-09-18T02:17:36.414Z,97.7
2017-09-18T02:18:38.210Z,97.8
2017-09-18T02:19:39.913Z,97.3
2017-09-18T02:20:41.649Z,98.4
2017-09-18T02:21:43.376Z,98.3
2017-09-18T02:22:45.094Z,98.2
2017-09-18T02:23:46.816Z,98.2
2017-09-18T02:24:48.540Z,98.0
2017-09-18T02:25:50.219Z,97.9
2017-09-18T02:26:51.921Z,98.2
2017-09-18T02:27:53.614Z,98.2
2017-09-18T02:28:55.314Z,98.2
2017-09-18T02:29:57.054Z,98.0
2017-09-18T02:30:58.781Z,98.4
2017-09-18T02:32:00.489Z,97.7
2017-09-18T02:33:02.193Z,97.5
2017-09-18T02:34:03.921Z,98.1
2017-09-18T02:35:05.630Z,97.9
2017-09-18T02:36:07.344Z,98.0
2017-09-18T02:37:09.057Z,97.9
2017-09-18T02:38:10.763Z,97.8
2017-09-18T02:39:12.464Z,97.8
2017-09-18T02:40:14.187Z,97.1
2017-09-18T02:41:15.907Z,98.0
2017-09-18T02:42:17.619Z,97.2
2017-09-18T02:43:19.350Z,97.4
2017-09-18T02:44:21.080Z,97.3
2017-09-18T02:45:22.776Z,97.2
2017-09-18T02:46:24.480Z,97.5
2017-09-18T02:47:26.191Z,97.5
2017-09-18T02:48:27.893Z,97.3
2017-09-18T02:49:29.607Z,97.1
2017-09-18T02:50:31.320Z,97.2
2017-09-18T02:51:33.011Z,97.2
2017-09-18T02:52:34.734Z,98.1
2017-09-18T02:53:36.461Z,97.6
2017-09-18T02:54:38.246Z,97.6
2017-09-18T02:55:39.932Z,97.6
2017-09-18T02:56:41.660Z,97.6
2017-09-18T02:57:43.382Z,97.4
2017-09-18T02:58:45.094Z,97.6
2017-09-18T02:59:46.806Z,97.9
2017-09-18T03:00:48.516Z,97.4
2017-09-18T03:01:50.364Z,97.7
2017-09-18T03:02:52.064Z,97.7
2017-09-18T03:03:53.791Z,97.3
2017-09-18T03:04:55.508Z,97.8
2017-09-18T03:05:57.222Z,97.5
2017-09-18T03:06:58.921Z,97.8
2017-09-18T03:08:00.623Z,97.7
2017-09-18T03:09:02.332Z,98.0
2017-09-18T03:10:04.041Z,98.1
2017-09-18T03:11:05.740Z,98.4
2017-09-18T03:12:07.454Z,97.8
2017-09-18T03:13:09.154Z,97.7
2017-09-18T03:14:10.855Z,98.2
2017-09-18T03:15:12.559Z,99.0
2017-09-18T03:16:14.260Z,98.7
2017-09-18T03:17:15.953Z,99.0
2017-09-18T03:18:17.661Z,98.9
2017-09-18T03:19:19.363Z,98.7
2017-09-18T03:20:21.115Z,99.5
2017-09-18T03:21:22.842Z,99.0
2017-09-18T03:22:24.562Z,99.6
2017-09-18T03:23:26.285Z,99.2
2017-09-18T03:24:27.983Z,98.8
2017-09-18T03:25:29.692Z,98.6
2017-09-18T03:26:31.382Z,99.0
2017-09-18T03:27:33.075Z,99.0
2017-09-18T03:28:34.788Z,99.0
2017-09-18T03:29:36.517Z,98.8
2017-09-18T03:30:38.260Z,98.8
2017-09-18T03:31:39.982Z,99.0
2017-09-18T03:32:41.701Z,99.0
2017-09-18T03:33:43.413Z,99.1
2017-09-18T03:34:45.111Z,99.0
2017-09-18T03:35:46.802Z,98.8
2017-09-18T03:36:48.557Z,98.9
2017-09-18T03:37:50.249Z,98.9
2017-09-18T03:38:51.971Z,99.0
2017-09-18T03:39:53.683Z,98.6
2017-09-18T03:40:55.418Z,98.8
2017-09-18T03:41:57.183Z,98.9
2017-09-18T03:42:58.894Z,99.1
2017-09-18T03:44:00.592Z,98.8
2017-09-18T03:45:02.341Z,98.7
2017-09-18T03:46:04.032Z,99.0
2017-09-18T03:47:05.780Z,99.2
2017-09-18T03:48:07.468Z,99.0
2017-09-18T03:49:09.162Z,98.8
2017-09-18T03:50:10.870Z,98.6
2017-09-18T03:51:12.614Z,99.0
2017-09-18T03:52:14.334Z,98.8
2017-09-18T03:53:16.023Z,99.3
2017-09-18T03:54:17.790Z,98.6
2017-09-18T03:55:19.574Z,98.6
2017-09-18T03:56:21.351Z,98.9
2017-09-18T03:57:23.119Z,98.8
2017-09-18T03:58:24.828Z,98.8
2017-09-18T03:59:26.580Z,98.5
2017-09-18T04:00:28.302Z,98.6
2017-09-18T04:01:29.999Z,98.7
2017-09-18T04:02:31.697Z,98.9
2017-09-18T04:03:33.401Z,98.8
2017-09-18T04:04:35.127Z,98.6
2017-09-18T04:05:36.859Z,99.0
2017-09-18T04:06:38.631Z,99.2
2017-09-18T04:07:40.410Z,99.8
2017-09-18T04:08:42.157Z,99.5
2017-09-18T04:09:43.870Z,100.0
2017-09-18T04:10:45.583Z,100.0
2017-09-18T04:11:47.384Z,100.0
2017-09-18T04:12:49.070Z,99.2
2017-09-18T04:13:50.759Z,100.0
2017-09-18T04:14:52.457Z,100.0
2017-09-18T04:15:54.198Z,100.0
2017-09-18T04:16:56.024Z,100.0
2017-09-18T04:17:57.738Z,100.0
2017-09-18T04:18:59.450Z,100.0
2017-09-18T04:20:01.162Z,100.0
2017-09-18T04:21:02.865Z,100.0
2017-09-18T04:22:04.553Z,100.0
2017-09-18T04:23:06.292Z,100.0
2017-09-18T04:24:08.033Z,100.0
2017-09-18T04:25:09.772Z,100.0
2017-09-18T04:26:11.491Z,100.0
2017-09-18T04:27:13.219Z,100.0
2017-09-18T04:28:14.965Z,100.0
2017-09-18T04:29:16.683Z,100.0
2017-09-18T04:30:18.400Z,100.0
2017-09-18T04:31:20.158Z,100.0
2017-09-18T04:32:21.953Z,100.0
2017-09-18T04:33:23.705Z,100.0
2017-09-18T04:34:25.412Z,100.0
2017-09-18T04:35:27.164Z,100.0
2017-09-18T04:36:28.918Z,100.0
2017-09-18T04:37:30.666Z,100.0
2017-09-18T04:38:32.420Z,100.0
2017-09-18T04:39:34.169Z,100.0
2017-09-18T04:40:35.883Z,100.0
2017-09-18T04:41:37.626Z,100.0
2017-09-18T04:42:39.457Z,100.0
2017-09-18T04:43:41.190Z,100.0
2017-09-18T04:44:42.951Z,100.0
2017-09-18T04:45:44.693Z,100.0
2017-09-18T04:46:46.407Z,100.0
2017-09-18T04:47:48.096Z,100.0
2017-09-18T04:48:49.829Z,100.0
2017-09-18T04:49:51.654Z,100.0
2017-09-18T04:50:53.366Z,100.0
2017-09-18T04:51:55.149Z,100.0
2017-09-18T04:52:56.870Z,100.0
2017-09-18T04:53:58.587Z,100.0
2017-09-18T04:55:00.293Z,100.0
2017-09-18T04:56:02.085Z,100.0
2017-09-18T04:57:03.778Z,100.0
2017-09-18T04:58:05.481Z,100.0
2017-09-18T04:59:07.183Z,100.0
2017-09-18T05:00:08.897Z,100.0
2017-09-18T05:01:10.583Z,100.0
2017-09-18T05:02:12.319Z,100.0
2017-09-18T05:03:14.056Z,100.0
2017-09-18T05:04:15.774Z,100.0
2017-09-18T05:05:17.475Z,100.0
2017-09-18T05:06:19.170Z,100.0
2017-09-18T05:07:20.880Z,100.0
2017-09-18T05:08:22.577Z,100.0
2017-09-18T05:09:24.307Z,100.0
2017-09-18T05:10:26.037Z,100.0
2017-09-18T05:11:27.741Z,100.0
2017-09-18T05:12:29.458Z,100.0
2017-09-18T05:13:31.146Z,100.0
2017-09-18T05:14:32.858Z,100.0
2017-09-18T05:15:34.575Z,100.0
2017-09-18T05:16:36.276Z,100.0
2017-09-18T05:17:37.989Z,100.0
2017-09-18T05:18:39.749Z,100.0
2017-09-18T05:19:41.450Z,100.0
2017-09-18T05:20:43.164Z,100.0
2017-09-18T05:21:44.903Z,100.0
2017-09-18T05:22:46.672Z,100.0
2017-09-18T05:23:48.401Z,100.0
2017-09-18T05:24:50.117Z,100.0
2017-09-18T05:25:51.821Z,100.0
2017-09-18T05:26:53.527Z,100.0
2017-09-18T05:27:55.241Z,100.0
2017-09-18T05:28:56.994Z,100.0
2017-09-18T05:29:58.695Z,100.0
2017-09-18T05:31:00.412Z,100.0
2017-09-18T05:32:02.124Z,100.0
2017-09-18T05:33:03.845Z,100.0
2017-09-18T05:34:05.568Z,100.0
2017-09-18T05:35:07.297Z,100.0
2017-09-18T05:36:09.019Z,100.0
2017-09-18T05:37:10.734Z,100.0
2017-09-18T05:38:12.450Z,100.0
2017-09-18T05:39:14.163Z,100.0
2017-09-18T05:40:15.906Z,100.0
2017-09-18T05:41:17.637Z,100.0
2017-09-18T05:42:19.379Z,100.0
2017-09-18T05:43:21.085Z,100.0
2017-09-18T05:44:22.783Z,100.0
2017-09-18T05:45:24.523Z,100.0
2017-09-18T05:46:26.241Z,100.0
2017-09-18T05:47:27.972Z,100.0
2017-09-18T05:48:29.858Z,100.0
2017-09-18T05:49:31.579Z,100.0
2017-09-18T05:50:33.291Z,100.0
2017-09-18T05:51:35.031Z,100.0
2017-09-18T05:52:36.779Z,100.0
2017-09-18T05:53:38.529Z,100.0
2017-09-18T05:54:40.318Z,100.0
2017-09-18T05:55:41.994Z,100.0
2017-09-18T05:56:43.705Z,100.0
2017-09-18T05:57:45.419Z,100.0
2017-09-18T05:58:47.111Z,100.0
2017-09-18T05:59:48.859Z,100.0
2017-09-18T06:00:50.580Z,100.0
2017-09-18T06:01:52.308Z,100.0
2017-09-18T06:02:54.026Z,100.0
2017-09-18T06:03:56.532Z,100.0
2017-09-18T06:04:58.282Z,100.0
2017-09-18T06:06:00.041Z,100.0
2017-09-18T06:07:01.778Z,100.0
2017-09-18T06:08:03.545Z,100.0
2017-09-18T06:09:05.278Z,100.0
2017-09-18T06:10:06.996Z,100.0
2017-09-18T06:11:08.727Z,100.0
2017-09-18T06:12:10.464Z,100.0
2017-09-18T06:13:12.203Z,100.0
2017-09-18T06:14:13.915Z,100.0
2017-09-18T06:15:15.619Z,100.0
2017-09-18T06:16:17.384Z,100.0
2017-09-18T06:17:19.138Z,100.0
2017-09-18T06:18:20.884Z,100.0
2017-09-18T06:19:22.654Z,100.0
2017-09-18T06:20:24.380Z,100.0
2017-09-18T06:21:26.120Z,100.0
2017-09-18T06:22:27.822Z,100.0
2017-09-18T06:23:29.541Z,100.0
2017-09-18T06:24:31.245Z,100.0
2017-09-18T06:25:32.969Z,100.0
2017-09-18T06:26:34.676Z,100.0
2017-09-18T06:27:36.403Z,100.0
2017-09-18T06:28:38.085Z,100.0
2017-09-18T06:29:39.807Z,100.0
2017-09-18T06:30:41.571Z,100.0
2017-09-18T06:31:43.290Z,100.0
2017-09-18T06:32:45.019Z,100.0
2017-09-18T06:33:47.482Z,100.0
2017-09-18T06:34:49.231Z,100.0
2017-09-18T06:35:50.958Z,100.0
2017-09-18T06:36:52.658Z,100.0
2017-09-18T06:37:54.400Z,100.0
2017-09-18T06:38:56.151Z,100.0
2017-09-18T06:39:57.857Z,100.0
2017-09-18T06:40:59.561Z,100.0
2017-09-18T06:42:01.285Z,100.0
2017-09-18T06:43:03.007Z,100.0
2017-09-18T06:44:04.712Z,100.0
2017-09-18T06:45:06.440Z,100.0
2017-09-18T06:46:08.173Z,100.0
2017-09-18T06:47:09.893Z,100.0
2017-09-18T06:48:11.609Z,100.0
2017-09-18T06:49:13.327Z,100.0
2017-09-18T06:50:15.068Z,100.0
2017-09-18T06:51:16.806Z,100.0
2017-09-18T06:52:18.541Z,100.0
2017-09-18T06:53:20.288Z,100.0
2017-09-18T06:54:22.026Z,100.0
2017-09-18T06:55:23.744Z,100.0
2017-09-18T06:56:25.476Z,100.0
2017-09-18T06:57:27.231Z,100.0
2017-09-18T06:58:28.930Z,100.0
2017-09-18T06:59:30.663Z,100.0
2017-09-18T07:00:32.449Z,100.0
2017-09-18T07:01:34.198Z,100.0
2017-09-18T07:02:35.909Z,100.0
2017-09-18T07:03:37.632Z,100.0
2017-09-18T07:04:39.341Z,100.0
2017-09-18T07:05:41.174Z,100.0
2017-09-18T07:06:42.871Z,100.0
2017-09-18T07:07:44.641Z,100.0
2017-09-18T07:08:46.330Z,100.0
2017-09-18T07:09:48.048Z,100.0
2017-09-18T07:10:49.781Z,100.0
2017-09-18T07:11:51.472Z,100.0
2017-09-18T07:12:53.187Z,100.0
2017-09-18T07:13:54.887Z,100.0
2017-09-18T07:14:56.609Z,100.0
2017-09-18T07:15:58.371Z,100.0
2017-09-18T07:17:00.090Z,100.0
2017-09-18T07:18:01.826Z,100.0
2017-09-18T07:19:03.556Z,100.0
2017-09-18T07:20:05.272Z,100.0
2017-09-18T07:21:06.999Z,100.0
2017-09-18T07:22:08.711Z,100.0
2017-09-18T07:23:10.437Z,100.0
2017-09-18T07:24:12.145Z,100.0
2017-09-18T07:25:13.844Z,100.0
2017-09-18T07:26:15.567Z,100.0
2017-09-18T07:27:17.286Z,100.0
2017-09-18T07:28:19.018Z,100.0
2017-09-18T07:29:20.785Z,100.0
2017-09-18T07:30:22.508Z,100.0
2017-09-18T07:31:24.248Z,100.0
2017-09-18T07:32:25.966Z,100.0
2017-09-18T07:33:27.672Z,100.0
2017-09-18T07:34:29.378Z,100.0
2017-09-18T07:35:31.092Z,100.0
2017-09-18T07:36:32.839Z,100.0
2017-09-18T07:37:34.543Z,100.0
2017-09-18T07:38:36.280Z,100.0
2017-09-18T07:39:37.986Z,100.0
2017-09-18T07:40:39.711Z,100.0
2017-09-18T07:41:41.495Z,100.0
2017-09-18T07:42:43.230Z,100.0
2017-09-18T07:43:44.949Z,100.0
2017-09-18T07:44:46.665Z,100.0
2017-09-18T07:45:48.393Z,100.0
2017-09-18T07:46:50.096Z,100.0
2017-09-18T07:47:51.810Z,100.0
2017-09-18T07:48:53.586Z,100.0
2017-09-18T07:49:55.322Z,100.0
2017-09-18T07:50:57.043Z,100.0
2017-09-18T07:51:58.762Z,100.0
2017-09-18T07:53:00.483Z,100.0
2017-09-18T07:54:02.253Z,100.0
2017-09-18T07:55:03.983Z,100.0
2017-09-18T07:56:05.675Z,100.0
2017-09-18T07:57:07.414Z,100.0
2017-09-18T07:58:09.143Z,100.0
2017-09-18T07:59:10.892Z,100.0
2017-09-18T08:00:12.592Z,100.0
2017-09-18T08:01:14.424Z,100.0
2017-09-18T08:02:16.207Z,100.0
2017-09-18T08:03:17.995Z,100.0
2017-09-18T08:04:19.744Z,100.0
2017-09-18T08:05:21.489Z,100.0
2017-09-18T08:06:23.236Z,100.0
2017-09-18T08:07:24.959Z,100.0
2017-09-18T08:08:26.834Z,100.0
2017-09-18T08:09:28.541Z,100.0
2017-09-18T08:10:30.294Z,100.0
2017-09-18T08:11:32.020Z,100.0
2017-09-18T08:12:33.767Z,100.0
2017-09-18T08:13:36.328Z,100.0
2017-09-18T08:14:38.063Z,100.0
2017-09-18T08:15:41.444Z,100.0
2017-09-18T08:16:42.890Z,100.0
2017-09-18T08:17:44.638Z,100.0
2017-09-18T08:18:46.361Z,100.0
2017-09-18T08:19:48.100Z,100.0
2017-09-18T08:20:49.951Z,100.0
2017-09-18T08:21:51.692Z,100.0
2017-09-18T08:22:53.413Z,100.0
2017-09-18T08:23:55.154Z,100.0
2017-09-18T08:24:56.873Z,100.0
2017-09-18T08:25:58.586Z,100.0
2017-09-18T08:27:00.319Z,100.0
2017-09-18T08:28:02.026Z,100.0
2017-09-18T08:29:03.743Z,100.0
2017-09-18T08:30:05.465Z,100.0
2017-09-18T08:31:07.185Z,100.0
2017-09-18T08:32:08.933Z,100.0
2017-09-18T08:33:10.661Z,100.0
2017-09-18T08:34:12.528Z,100.0
2017-09-18T08:35:14.223Z,100.0
2017-09-18T08:36:15.955Z,100.0
2017-09-18T08:37:17.718Z,100.0
2017-09-18T08:38:19.515Z,100.0
2017-09-18T08:39:21.310Z,100.0
2017-09-18T08:40:23.094Z,100.0
2017-09-18T08:41:24.948Z,100.0
2017-09-18T08:42:26.907Z,100.0
2017-09-18T08:43:28.730Z,100.0
2017-09-18T08:44:30.903Z,100.0
2017-09-18T08:45:32.689Z,100.0
2017-09-18T08:46:34.568Z,100.0
2017-09-18T08:47:36.389Z,100.0
2017-09-18T08:48:38.423Z,100.0
2017-09-18T08:49:40.246Z,100.0
2017-09-18T08:50:42.248Z,100.0
2017-09-18T08:51:44.058Z,100.0
2017-09-18T08:52:46.500Z,100.0
2017-09-18T08:53:48.282Z,100.0
2017-09-18T08:54:50.094Z,100.0
2017-09-18T08:55:51.914Z,100.0
2017-09-18T08:56:53.799Z,100.0
2017-09-18T08:57:55.588Z,100.0
2017-09-18T08:58:57.444Z,100.0
2017-09-18T08:59:59.263Z,100.0
2017-09-18T09:01:01.253Z,100.0
2017-09-18T09:02:03.684Z,100.0
2017-09-18T09:03:05.964Z,100.0
2017-09-18T09:04:07.793Z,100.0
2017-09-18T09:05:09.594Z,100.0
2017-09-18T09:06:11.453Z,100.0
2017-09-18T09:07:13.390Z,100.0
2017-09-18T09:08:15.085Z,100.0
2017-09-18T09:09:16.822Z,100.0
2017-09-18T09:10:18.642Z,100.0
2017-09-18T09:11:20.394Z,100.0
2017-09-18T09:12:22.269Z,100.0
2017-09-18T09:13:24.068Z,100.0
2017-09-18T09:14:25.946Z,100.0
2017-09-18T09:15:27.724Z,100.0
2017-09-18T09:16:29.458Z,100.0
2017-09-18T09:17:31.208Z,100.0
2017-09-18T09:18:32.982Z,100.0
2017-09-18T09:19:34.763Z,100.0
2017-09-18T09:20:36.492Z,100.0
2017-09-18T09:21:38.243Z,100.0
2017-09-18T09:22:40.091Z,100.0
2017-09-18T09:23:41.882Z,100.0
2017-09-18T09:24:43.735Z,100.0
2017-09-18T09:25:46.263Z,100.0
2017-09-18T09:26:48.118Z,100.0
2017-09-18T09:27:50.905Z,100.0
2017-09-18T09:28:53.642Z,100.0
2017-09-18T09:29:55.844Z,100.0
2017-09-18T09:30:57.959Z,100.0
2017-09-18T09:32:00.482Z,100.0
2017-09-18T09:33:02.643Z,100.0
2017-09-18T09:34:04.523Z,100.0
2017-09-18T09:35:07.152Z,100.0
2017-09-18T09:36:09.476Z,100.0
2017-09-18T09:37:11.371Z,100.0
2017-09-18T09:38:13.393Z,100.0
2017-09-18T09:39:15.656Z,100.0
2017-09-18T09:40:17.633Z,100.0
2017-09-18T09:41:19.411Z,100.0
2017-09-18T09:42:21.812Z,100.0
2017-09-18T09:43:23.596Z,100.0
2017-09-18T09:44:25.408Z,100.0
2017-09-18T09:45:27.728Z,100.0
2017-09-18T09:46:29.654Z,100.0
2017-09-18T09:47:31.403Z,100.0
2017-09-18T09:48:33.365Z,100.0
2017-09-18T09:49:35.621Z,100.0
2017-09-18T09:50:39.421Z,100.0
2017-09-18T09:51:41.480Z,100.0
2017-09-18T09:52:43.363Z,100.0
2017-09-18T09:53:45.471Z,100.0
2017-09-18T09:54:47.292Z,100.0
2017-09-18T09:55:49.069Z,100.0
2017-09-18T09:56:50.933Z,100.0
2017-09-18T09:57:52.743Z,100.0
2017-09-18T09:58:54.534Z,100.0
2017-09-18T09:59:56.344Z,99.8
2017-09-18T10:00:58.209Z,99.5
2017-09-18T10:02:00.017Z,99.8
2017-09-18T10:03:01.853Z,99.5
2017-09-18T10:04:03.735Z,100.0
2017-09-18T10:05:05.512Z,99.9
2017-09-18T10:06:07.272Z,99.4
2017-09-18T10:07:09.117Z,98.6
2017-09-18T10:08:10.870Z,98.8
2017-09-18T10:09:12.633Z,99.7
2017-09-18T10:10:14.385Z,100.0
2017-09-18T10:11:16.157Z,100.0
2017-09-18T10:12:18.022Z,100.0
2017-09-18T10:13:19.764Z,100.0
2017-09-18T10:14:21.542Z,100.0
2017-09-18T10:15:23.297Z,100.0
2017-09-18T10:16:25.123Z,100.0
2017-09-18T10:17:26.877Z,100.0
2017-09-18T10:18:28.630Z,100.0
2017-09-18T10:19:30.401Z,99.2
2017-09-18T10:20:32.206Z,98.3
2017-09-18T10:21:34.007Z,98.2
2017-09-18T10:22:35.940Z,98.3
2017-09-18T10:23:37.737Z,98.9
2017-09-18T10:24:39.554Z,98.5
2017-09-18T10:25:41.486Z,98.6
2017-09-18T10:26:43.341Z,98.5
2017-09-18T10:27:45.606Z,98.2
2017-09-18T10:28:47.490Z,98.2
2017-09-18T10:29:49.353Z,97.9
2017-09-18T10:30:51.182Z,97.6
2017-09-18T10:31:53.002Z,98.4
2017-09-18T10:32:54.854Z,98.3
2017-09-18T10:33:56.642Z,99.3
2017-09-18T10:34:58.505Z,100.0
2017-09-18T10:36:00.400Z,100.0
2017-09-18T10:37:02.275Z,100.0
2017-09-18T10:38:04.108Z,100.0
2017-09-18T10:39:05.939Z,100.0
2017-09-18T10:40:07.791Z,100.0
2017-09-18T10:41:09.722Z,100.0
2017-09-18T10:42:11.619Z,100.0
2017-09-18T10:43:13.481Z,100.0
2017-09-18T10:44:15.311Z,100.0
2017-09-18T10:45:17.163Z,100.0
2017-09-18T10:46:19.002Z,100.0
2017-09-18T10:47:20.778Z,100.0
2017-09-18T10:48:22.672Z,100.0
2017-09-18T10:49:24.564Z,100.0
2017-09-18T10:50:26.378Z,100.0
2017-09-18T10:51:28.231Z,100.0
2017-09-18T10:52:30.053Z,100.0
2017-09-18T10:53:31.906Z,100.0
2017-09-18T10:54:33.764Z,99.5
2017-09-18T10:55:35.771Z,99.6
2017-09-18T10:56:37.581Z,99.4
2017-09-18T10:57:39.480Z,98.2
2017-09-18T10:58:41.338Z,98.6
2017-09-18T10:59:43.081Z,98.7
2017-09-18T11:00:44.962Z,99.5
2017-09-18T11:01:47.108Z,99.7
2017-09-18T11:02:48.910Z,99.4
2017-09-18T11:03:50.803Z,99.4
2017-09-18T11:04:52.626Z,98.1
2017-09-18T11:05:54.495Z,97.8
2017-09-18T11:06:56.366Z,98.2
2017-09-18T11:07:58.277Z,97.6
2017-09-18T11:09:00.105Z,97.5
2017-09-18T11:10:01.926Z,96.6
2017-09-18T11:11:03.719Z,97.5
2017-09-18T11:12:05.744Z,97.4
2017-09-18T11:13:07.519Z,97.2
2017-09-18T11:14:09.361Z,98.6
2017-09-18T11:15:11.395Z,98.5
2017-09-18T11:16:13.209Z,98.6
2017-09-18T11:17:15.037Z,98.3
2017-09-18T11:18:16.989Z,98.3
2017-09-18T11:19:18.786Z,98.8
2017-09-18T11:20:20.663Z,97.3
2017-09-18T11:21:22.504Z,96.3
2017-09-18T11:22:24.256Z,95.6
2017-09-18T11:23:26.028Z,95.0
2017-09-18T11:24:27.791Z,93.1
2017-09-18T11:25:29.685Z,91.4
2017-09-18T11:26:31.645Z,90.3
2017-09-18T11:27:33.366Z,92.2
2017-09-18T11:28:35.190Z,91.5
2017-09-18T11:29:36.908Z,89.6
2017-09-18T11:30:40.243Z,90.1
2017-09-18T11:31:42.535Z,89.3
2017-09-18T11:32:46.172Z,89.1
2017-09-18T11:33:49.138Z,87.7
2017-09-18T11:34:51.777Z,85.7
2017-09-18T11:35:53.670Z,86.8
2017-09-18T11:36:55.534Z,86.5
2017-09-18T11:37:57.473Z,89.6
2017-09-18T11:38:59.386Z,88.3
2017-09-18T11:40:01.284Z,86.6
2017-09-18T11:41:03.182Z,84.2
2017-09-18T11:42:04.979Z,83.9
2017-09-18T11:43:06.759Z,84.2
2017-09-18T11:44:08.558Z,84.6
2017-09-18T11:45:10.316Z,85.8
2017-09-18T11:46:12.069Z,88.8
2017-09-18T11:47:13.820Z,88.3
2017-09-18T11:48:15.693Z,83.9
2017-09-18T11:49:17.466Z,85.1
2017-09-18T11:50:19.253Z,84.2
2017-09-18T11:51:21.001Z,84.7
2017-09-18T11:52:22.828Z,84.6
2017-09-18T11:53:24.598Z,84.9
2017-09-18T11:54:26.394Z,84.4
2017-09-18T11:55:28.214Z,84.6
2017-09-18T11:56:29.966Z,85.7
2017-09-18T11:57:31.720Z,84.9
2017-09-18T11:58:33.487Z,82.0
2017-09-18T11:59:35.257Z,78.2
2017-09-18T12:00:37.014Z,79.4
2017-09-18T12:01:38.812Z,81.0
2017-09-18T12:02:40.595Z,82.8
2017-09-18T12:03:42.372Z,78.6
2017-09-18T12:04:44.133Z,78.1
2017-09-18T12:05:45.875Z,75.8
2017-09-18T12:06:47.655Z,76.5
2017-09-18T12:08:41.053Z,80.3
2017-09-18T12:09:42.810Z,83.6
2017-09-18T12:12:25.108Z,85.9
2017-09-18T12:15:07.190Z,85.8
2017-09-18T12:16:08.935Z,85.9
2017-09-18T12:17:10.712Z,85.1
2017-09-18T12:18:12.517Z,85.1
2017-09-18T12:19:14.466Z,88.2
2017-09-18T12:20:16.247Z,88.4
2017-09-18T12:21:18.081Z,89.0
2017-09-18T12:22:19.843Z,89.6
2017-09-18T12:23:21.621Z,88.9
2017-09-18T12:24:23.375Z,85.8
2017-09-18T12:25:25.175Z,83.3
2017-09-18T12:26:26.983Z,84.3
2017-09-18T12:28:13.320Z,85.4
2017-09-18T12:29:15.204Z,84.4
2017-09-18T12:30:16.971Z,85.1
2017-09-18T12:31:18.755Z,81.5
2017-09-18T12:32:20.552Z,81.3
2017-09-18T12:33:22.378Z,79.0
2017-09-18T12:35:14.565Z,74.4
2017-09-18T12:37:07.199Z,79.9
2017-09-18T12:39:00.541Z,80.4
2017-09-18T12:41:43.571Z,82.3
2017-09-18T12:43:36.680Z,83.8
2017-09-18T12:44:38.533Z,82.5
2017-09-18T12:46:20.724Z,83.7
2017-09-18T12:47:22.517Z,86.0
2017-09-18T12:48:24.348Z,86.6
2017-09-18T12:49:26.126Z,83.8
2017-09-18T12:50:27.907Z,80.9
2017-09-18T12:51:29.742Z,80.9
2017-09-18T12:52:31.589Z,77.6
2017-09-18T12:53:33.423Z,81.3
2017-09-18T12:54:35.179Z,81.5
2017-09-18T12:55:36.940Z,81.3
2017-09-18T12:56:38.710Z,80.6
2017-09-18T12:57:41.913Z,81.6
2017-09-18T12:59:27.317Z,82.5
2017-09-18T13:00:29.166Z,80.2
2017-09-18T13:01:30.995Z,82.9
2017-09-18T13:02:32.824Z,82.5
2017-09-18T13:03:34.608Z,82.6
2017-09-18T13:04:36.451Z,82.0
2017-09-18T13:05:38.260Z,83.0
2017-09-18T13:06:40.054Z,81.1
2017-09-18T13:07:41.851Z,79.3
2017-09-18T13:08:43.654Z,80.1
2017-09-18T13:09:45.475Z,78.8
2017-09-18T13:10:47.314Z,78.4
2017-09-18T13:11:49.138Z,76.0
2017-09-18T13:12:50.921Z,75.5
2017-09-18T13:13:52.708Z,78.1
2017-09-18T13:14:54.499Z,82.9
2017-09-18T13:15:56.266Z,84.8
2017-09-18T13:16:58.019Z,84.7
2017-09-18T13:17:59.769Z,83.3
2017-09-18T13:19:01.516Z,84.7
2017-09-18T13:20:03.265Z,85.3
2017-09-18T13:21:05.039Z,85.3
2017-09-18T13:22:06.844Z,85.8
2017-09-18T13:23:08.595Z,86.0
2017-09-18T13:24:10.358Z,83.5
2017-09-18T13:25:12.116Z,83.0
2017-09-18T13:26:13.884Z,80.8
2017-09-18T13:27:15.724Z,79.5
2017-09-18T13:28:17.470Z,81.4
2017-09-18T13:29:19.216Z,80.7
2017-09-18T13:30:20.978Z,82.9
2017-09-18T13:31:22.732Z,84.3
2017-09-18T13:32:24.545Z,84.4
2017-09-18T13:33:26.333Z,83.8
2017-09-18T13:34:28.245Z,83.0
2017-09-18T13:35:30.007Z,80.9
2017-09-18T13:36:31.840Z,80.8
2017-09-18T13:37:33.601Z,80.5
2017-09-18T13:38:35.362Z,79.3